Time;durP1;ratioP1;P1;durP2;ratioP2;P2;SDS_P1;SDS_P2;PMS_P1;PMS_P2;Temp;Humidity;BMP_temperature;BMP_pressure;BME280_temperature;BME280_humidity;BME280_pressure;Samples;Min_cycle;Max_cycle;Signal;HPM_P1;HPM_P2
2023/09/08 00:02:10;;;;;;;9.07;4.63;;;;;;;;;;4950428;28;20214;-89
2023/09/08 00:05:21;;;;;;;9.10;4.00;;;;;;;;;;4948405;28;20223;-88
2023/09/08 00:08:33;;;;;;;7.82;4.32;;;;;;;;;;4947442;28;20698;-92
2023/09/08 00:11:44;;;;;;;11.48;4.30;;;;;;;;;;4946127;29;20184;-92
2023/09/08 00:14:56;;;;;;;7.82;4.20;;;;;;;;;;4948927;29;20570;-90
2023/09/08 00:18:09;;;;;;;7.45;4.10;;;;;;;;;;4948225;28;20188;-92
2023/09/08 00:21:21;;;;;;;9.85;4.20;;;;;;;;;;4948072;28;20191;-93
2023/09/08 00:24:32;;;;;;;6.90;3.95;;;;;;;;;;4945824;29;20261;-92
2023/09/08 00:27:43;;;;;;;8.00;4.15;;;;;;;;;;4947136;28;20179;-92
2023/09/08 00:30:55;;;;;;;8.52;4.63;;;;;;;;;;4956222;28;20198;-91
2023/09/08 00:34:11;;;;;;;8.27;4.53;;;;;;;;;;4967199;28;20226;-93
2023/09/08 00:37:23;;;;;;;5.88;3.75;;;;;;;;;;4965850;28;20195;-95
2023/09/08 00:40:34;;;;;;;7.22;3.95;;;;;;;;;;4968944;28;20198;-92
2023/09/08 00:43:46;;;;;;;8.00;4.15;;;;;;;;;;4950809;28;20219;-93
2023/09/08 00:46:58;;;;;;;7.07;3.97;;;;;;;;;;4948547;28;20271;-92
2023/09/08 00:50:13;;;;;;;8.38;3.90;;;;;;;;;;4948612;28;20219;-93
2023/09/08 00:53:24;;;;;;;9.90;4.65;;;;;;;;;;4948311;28;20200;-90
2023/09/08 00:56:36;;;;;;;8.40;4.53;;;;;;;;;;4946952;28;20231;-93
2023/09/08 00:59:48;;;;;;;8.60;4.43;;;;;;;;;;4948760;28;20191;-90
2023/09/08 01:03:02;;;;;;;7.50;4.22;;;;;;;;;;4927348;29;20263;-92
2023/09/08 01:06:16;;;;;;;6.38;3.80;;;;;;;;;;4942528;28;20215;-91
2023/09/08 01:09:28;;;;;;;8.05;4.05;;;;;;;;;;4945824;28;20214;-92
2023/09/08 01:12:39;;;;;;;7.88;4.10;;;;;;;;;;4946730;28;20191;-94
2023/09/08 01:15:50;;;;;;;8.88;4.05;;;;;;;;;;4946073;28;20234;-93
2023/09/08 01:19:04;;;;;;;5.90;3.85;;;;;;;;;;4945456;28;20265;-93
2023/09/08 01:22:26;;;;;;;6.45;4.35;;;;;;;;;;4944567;29;20213;-95
2023/09/08 01:25:41;;;;;;;6.25;3.88;;;;;;;;;;4945260;28;20188;-91
2023/09/08 01:28:54;;;;;;;6.93;4.32;;;;;;;;;;4943860;29;20187;-91
2023/09/08 01:32:06;;;;;;;5.75;3.83;;;;;;;;;;4945177;28;20195;-95
2023/09/08 01:35:18;;;;;;;7.70;3.72;;;;;;;;;;4950005;28;20202;-91
2023/09/08 01:38:30;;;;;;;6.22;3.55;;;;;;;;;;4964611;28;20193;-93
2023/09/08 01:41:43;;;;;;;7.75;3.80;;;;;;;;;;4962929;29;20190;-91
2023/09/08 01:44:54;;;;;;;6.10;3.90;;;;;;;;;;4959374;28;20271;-94
2023/09/08 01:48:07;;;;;;;8.10;3.65;;;;;;;;;;4928531;29;20279;-91
2023/09/08 01:51:18;;;;;;;6.07;3.63;;;;;;;;;;4936463;28;20191;-94
2023/09/08 01:54:30;;;;;;;6.50;3.90;;;;;;;;;;4934329;29;20217;-93
2023/09/08 01:57:43;;;;;;;9.35;4.25;;;;;;;;;;4935549;29;20212;-92
2023/09/08 02:01:00;;;;;;;10.02;3.85;;;;;;;;;;4935319;29;20276;-94
2023/09/08 02:04:12;;;;;;;8.50;4.07;;;;;;;;;;4936052;28;20340;-92
2023/09/08 02:07:23;;;;;;;7.63;4.13;;;;;;;;;;4935426;29;20558;-91
2023/09/08 02:10:36;;;;;;;7.68;4.10;;;;;;;;;;4938335;29;20205;-93
2023/09/08 02:13:50;;;;;;;6.32;3.88;;;;;;;;;;4938020;28;20720;-92
2023/09/08 02:17:02;;;;;;;7.30;4.10;;;;;;;;;;4944285;28;20221;-94
2023/09/08 02:20:14;;;;;;;7.05;3.97;;;;;;;;;;4956930;28;20206;-90
2023/09/08 02:23:25;;;;;;;9.23;4.65;;;;;;;;;;4965823;28;20225;-91
2023/09/08 02:26:36;;;;;;;21.45;9.13;;;;;;;;;;4965969;28;20175;-91
2023/09/08 02:29:49;;;;;;;21.20;8.40;;;;;;;;;;4965643;28;20230;-91
2023/09/08 02:33:02;;;;;;;19.15;8.55;;;;;;;;;;4964178;28;20254;-90
2023/09/08 02:36:25;;;;;;;21.70;7.95;;;;;;;;;;4969426;29;20186;-90
2023/09/08 02:39:36;;;;;;;22.90;7.97;;;;;;;;;;4950667;28;20280;-89
2023/09/08 02:42:47;;;;;;;20.15;7.90;;;;;;;;;;4948993;28;20218;-92
2023/09/08 02:46:01;;;;;;;12.07;5.35;;;;;;;;;;4949156;29;20670;-90
2023/09/08 02:49:12;;;;;;;12.63;5.30;;;;;;;;;;4960421;28;20210;-89
2023/09/08 02:52:24;;;;;;;12.35;6.43;;;;;;;;;;4929716;29;20612;-91
2023/09/08 02:55:36;;;;;;;13.18;5.85;;;;;;;;;;4931170;29;20196;-88
2023/09/08 02:58:48;;;;;;;16.08;6.25;;;;;;;;;;4928856;29;20220;-92
2023/09/08 03:02:03;;;;;;;13.00;5.20;;;;;;;;;;4929661;29;20276;-90
2023/09/08 03:05:14;;;;;;;11.52;5.38;;;;;;;;;;4931180;29;20715;-91
2023/09/08 03:08:25;;;;;;;10.75;4.78;;;;;;;;;;4930668;29;20248;-94
2023/09/08 03:11:38;;;;;;;8.70;4.75;;;;;;;;;;4930394;29;20200;-93
2023/09/08 03:14:49;;;;;;;17.10;5.40;;;;;;;;;;4929125;29;20175;-89
2023/09/08 03:18:03;;;;;;;12.98;5.20;;;;;;;;;;4930798;29;20301;-93
2023/09/08 03:21:15;;;;;;;12.82;4.88;;;;;;;;;;4931025;29;20737;-93
2023/09/08 03:24:27;;;;;;;11.18;4.97;;;;;;;;;;4930368;29;20216;-91
2023/09/08 03:27:39;;;;;;;10.82;4.72;;;;;;;;;;4944584;28;20191;-92
2023/09/08 03:30:51;;;;;;;8.93;4.95;;;;;;;;;;4949347;28;20183;-89
2023/09/08 03:34:05;;;;;;;13.63;5.80;;;;;;;;;;4947712;28;20195;-93
2023/09/08 03:37:16;;;;;;;10.77;5.50;;;;;;;;;;4947317;29;20207;-91
2023/09/08 03:40:29;;;;;;;11.15;5.93;;;;;;;;;;4947193;28;20183;-92
2023/09/08 03:43:41;;;;;;;12.00;5.45;;;;;;;;;;4948193;28;20211;-93
2023/09/08 03:46:52;;;;;;;12.25;5.10;;;;;;;;;;4960589;28;20194;-92
2023/09/08 03:50:05;;;;;;;10.27;5.43;;;;;;;;;;4964900;28;20191;-91
2023/09/08 03:53:18;;;;;;;10.93;5.75;;;;;;;;;;4965245;28;20178;-93
2023/09/08 03:56:29;;;;;;;10.23;5.50;;;;;;;;;;4946804;28;20207;-91
2023/09/08 03:59:41;;;;;;;10.43;4.85;;;;;;;;;;4960696;28;20234;-91
2023/09/08 04:02:53;;;;;;;16.73;5.90;;;;;;;;;;4966373;28;20342;-92
2023/09/08 04:06:06;;;;;;;11.43;5.45;;;;;;;;;;4962007;28;20194;-92
2023/09/08 04:09:17;;;;;;;11.23;5.25;;;;;;;;;;4945193;28;20222;-90
2023/09/08 04:12:29;;;;;;;9.40;5.72;;;;;;;;;;4947144;29;20179;-92
2023/09/08 04:15:41;;;;;;;11.98;5.72;;;;;;;;;;4945634;28;20247;-93
2023/09/08 04:18:53;;;;;;;13.30;5.65;;;;;;;;;;4937678;29;20191;-89
2023/09/08 04:22:07;;;;;;;10.57;5.53;;;;;;;;;;4927967;29;20268;-91
2023/09/08 04:25:20;;;;;;;13.70;5.60;;;;;;;;;;4929156;29;20577;-94
2023/09/08 04:28:31;;;;;;;11.80;5.93;;;;;;;;;;4967077;28;20649;-93
2023/09/08 04:31:43;;;;;;;10.45;5.90;;;;;;;;;;4965971;28;20174;-89
2023/09/08 04:34:56;;;;;;;12.90;6.45;;;;;;;;;;4967470;28;20202;-93
2023/09/08 04:38:09;;;;;;;15.18;6.32;;;;;;;;;;4950566;28;20198;-92
2023/09/08 04:41:20;;;;;;;10.65;5.47;;;;;;;;;;4949492;28;20199;-92
2023/09/08 04:44:32;;;;;;;12.60;5.22;;;;;;;;;;4955911;28;20222;-91
2023/09/08 04:47:46;;;;;;;12.05;5.88;;;;;;;;;;4968652;28;20187;-91
2023/09/08 04:50:58;;;;;;;8.32;5.05;;;;;;;;;;4967183;28;20268;-90
2023/09/08 04:54:12;;;;;;;11.05;5.40;;;;;;;;;;4968379;28;20195;-93
2023/09/08 04:57:24;;;;;;;10.82;5.60;;;;;;;;;;4967749;28;20186;-92
2023/09/08 05:00:41;;;;;;;11.90;5.97;;;;;;;;;;4959000;28;20280;-94
2023/09/08 05:03:52;;;;;;;11.55;5.78;;;;;;;;;;4949468;28;20207;-90
2023/09/08 05:07:05;;;;;;;9.48;5.72;;;;;;;;;;4949024;28;20236;-95
2023/09/08 05:10:19;;;;;;;11.13;5.70;;;;;;;;;;4932854;28;20207;-92
2023/09/08 05:13:30;;;;;;;14.73;5.32;;;;;;;;;;4946492;28;20175;-91
2023/09/08 05:16:48;;;;;;;9.15;4.85;;;;;;;;;;4945514;28;20231;-88
2023/09/08 05:20:04;;;;;;;8.68;5.20;;;;;;;;;;4944467;28;20199;-90
2023/09/08 05:23:16;;;;;;;9.02;4.90;;;;;;;;;;4948509;28;20207;-89
2023/09/08 05:26:30;;;;;;;11.57;5.40;;;;;;;;;;4948342;28;20199;-89
2023/09/08 05:29:42;;;;;;;11.95;6.53;;;;;;;;;;4949480;29;20207;-91
2023/09/08 05:32:53;;;;;;;8.68;4.68;;;;;;;;;;4944742;28;20238;-90
2023/09/08 05:36:08;;;;;;;9.23;5.30;;;;;;;;;;4948153;28;20239;-87
2023/09/08 05:39:20;;;;;;;8.25;4.72;;;;;;;;;;4947334;28;20215;-89
2023/09/08 05:42:36;;;;;;;10.90;5.00;;;;;;;;;;4933926;29;20210;-90
2023/09/08 05:45:48;;;;;;;12.90;4.70;;;;;;;;;;4927632;29;20364;-90
2023/09/08 05:49:02;;;;;;;6.75;4.03;;;;;;;;;;4936241;28;20195;-91
2023/09/08 05:52:16;;;;;;;10.50;4.65;;;;;;;;;;4928614;29;20325;-89
2023/09/08 05:55:28;;;;;;;8.27;4.65;;;;;;;;;;4929031;29;20191;-92
2023/09/08 05:58:40;;;;;;;9.18;4.72;;;;;;;;;;4942938;28;20676;-89
2023/09/08 06:01:53;;;;;;;9.20;4.57;;;;;;;;;;4938599;29;20265;-90
2023/09/08 06:05:05;;;;;;;12.65;4.30;;;;;;;;;;4956899;28;20230;-90
2023/09/08 06:08:18;;;;;;;7.75;4.22;;;;;;;;;;4950505;28;20207;-89
2023/09/08 06:11:31;;;;;;;7.85;4.22;;;;;;;;;;4953207;28;20761;-88
2023/09/08 06:14:45;;;;;;;6.97;3.83;;;;;;;;;;4952923;28;20172;-92
2023/09/08 06:17:58;;;;;;;6.95;3.92;;;;;;;;;;4946370;28;20195;-90
2023/09/08 06:21:10;;;;;;;9.77;4.05;;;;;;;;;;4950689;29;20226;-88
2023/09/08 06:24:22;;;;;;;8.93;4.30;;;;;;;;;;4951457;28;20218;-89
2023/09/08 06:27:34;;;;;;;10.80;3.58;;;;;;;;;;4951889;29;20199;-92
2023/09/08 06:30:48;;;;;;;6.63;3.83;;;;;;;;;;4946712;29;20336;-90
2023/09/08 06:33:59;;;;;;;6.57;3.72;;;;;;;;;;4945414;29;20315;-91
2023/09/08 06:37:13;;;;;;;8.77;4.38;;;;;;;;;;4949594;28;20199;-91
2023/09/08 06:40:26;;;;;;;9.10;3.75;;;;;;;;;;4948344;29;20292;-91
2023/09/08 06:43:37;;;;;;;10.68;4.32;;;;;;;;;;4948460;29;20215;-90
2023/09/08 06:46:56;;;;;;;6.65;3.78;;;;;;;;;;4946413;28;20199;-87
2023/09/08 06:50:09;;;;;;;9.13;4.00;;;;;;;;;;4948355;28;20215;-90
2023/09/08 06:53:22;;;;;;;12.25;4.40;;;;;;;;;;4947328;28;20183;-88
2023/09/08 06:56:33;;;;;;;8.60;5.50;;;;;;;;;;4948075;29;20287;-90
2023/09/08 06:59:45;;;;;;;13.77;4.78;;;;;;;;;;4948158;28;20190;-91
2023/09/08 07:02:57;;;;;;;14.43;5.47;;;;;;;;;;4948684;28;20198;-92
2023/09/08 07:06:09;;;;;;;14.60;5.05;;;;;;;;;;4949750;29;20193;-89
2023/09/08 07:09:22;;;;;;;9.02;5.15;;;;;;;;;;4948253;28;20222;-90
2023/09/08 07:12:33;;;;;;;9.32;4.88;;;;;;;;;;4948952;28;20674;-90
2023/09/08 07:15:44;;;;;;;8.93;4.38;;;;;;;;;;4949868;28;20286;-91
2023/09/08 07:18:59;;;;;;;13.18;5.03;;;;;;;;;;4947847;29;20184;-91
2023/09/08 07:22:11;;;;;;;9.27;4.72;;;;;;;;;;4948087;28;20219;-89
2023/09/08 07:25:23;;;;;;;12.40;4.97;;;;;;;;;;4946515;28;20702;-88
2023/09/08 07:28:36;;;;;;;7.45;4.40;;;;;;;;;;4947288;29;20569;-89
2023/09/08 07:31:51;;;;;;;9.65;4.78;;;;;;;;;;4947013;29;20179;-90
2023/09/08 07:35:05;;;;;;;7.57;5.00;;;;;;;;;;4927255;28;20721;-89
2023/09/08 07:38:19;;;;;;;8.30;4.85;;;;;;;;;;4930343;28;20196;-91
2023/09/08 07:41:30;;;;;;;10.70;6.05;;;;;;;;;;4929581;28;20188;-89
2023/09/08 07:44:42;;;;;;;15.38;7.30;;;;;;;;;;4930327;28;20211;-91
2023/09/08 07:47:54;;;;;;;7.80;4.78;;;;;;;;;;4931320;29;20208;-89
2023/09/08 07:51:07;;;;;;;8.70;5.35;;;;;;;;;;4930314;29;20266;-90
2023/09/08 07:54:18;;;;;;;8.98;4.70;;;;;;;;;;4927745;29;20275;-91
2023/09/08 07:57:31;;;;;;;9.13;5.32;;;;;;;;;;4928450;29;20277;-91
2023/09/08 08:00:42;;;;;;;11.13;5.20;;;;;;;;;;4932101;29;20281;-91
2023/09/08 08:03:54;;;;;;;7.43;4.80;;;;;;;;;;4929693;29;20282;-90
2023/09/08 08:07:07;;;;;;;16.48;5.30;;;;;;;;;;4930012;29;20196;-90
2023/09/08 08:10:19;;;;;;;11.05;4.60;;;;;;;;;;4930129;29;20199;-89
2023/09/08 08:13:30;;;;;;;13.50;4.70;;;;;;;;;;4931762;29;20195;-89
2023/09/08 08:16:43;;;;;;;7.68;4.80;;;;;;;;;;4927837;29;20190;-90
2023/09/08 08:19:58;;;;;;;11.25;4.85;;;;;;;;;;4931584;29;20191;-90
2023/09/08 08:23:11;;;;;;;8.30;4.22;;;;;;;;;;4929262;29;20243;-91
2023/09/08 08:26:27;;;;;;;9.50;4.63;;;;;;;;;;4931809;29;20191;-90
2023/09/08 08:29:38;;;;;;;10.50;4.50;;;;;;;;;;4927902;29;20191;-89
2023/09/08 08:32:51;;;;;;;7.15;4.20;;;;;;;;;;4926888;29;20196;-90
2023/09/08 08:36:04;;;;;;;7.30;3.85;;;;;;;;;;4933501;29;20279;-92
2023/09/08 08:39:20;;;;;;;9.65;5.28;;;;;;;;;;4928832;29;20195;-91
2023/09/08 08:42:33;;;;;;;6.80;4.00;;;;;;;;;;4928008;29;20211;-91
2023/09/08 08:45:45;;;;;;;8.02;4.07;;;;;;;;;;4928489;29;20222;-92
2023/09/08 08:49:02;;;;;;;5.30;3.75;;;;;;;;;;4925463;29;20239;-91
2023/09/08 08:52:14;;;;;;;5.75;3.80;;;;;;;;;;4926522;29;20578;-90
2023/09/08 08:55:27;;;;;;;8.00;3.83;;;;;;;;;;4925561;29;20597;-89
2023/09/08 08:58:39;;;;;;;8.25;3.58;;;;;;;;;;4934669;29;20219;-89
2023/09/08 09:01:51;;;;;;;8.07;3.13;;;;;;;;;;4947863;28;20190;-89
2023/09/08 09:05:03;;;;;;;4.55;3.20;;;;;;;;;;4949541;28;20198;-89
2023/09/08 09:08:16;;;;;;;6.20;3.13;;;;;;;;;;4948624;28;20250;-90
2023/09/08 09:11:30;;;;;;;5.82;3.45;;;;;;;;;;4951974;28;20230;-93
2023/09/08 09:14:47;;;;;;;4.22;2.80;;;;;;;;;;4949681;28;20206;-91
2023/09/08 09:18:04;;;;;;;5.55;3.30;;;;;;;;;;4945469;28;20565;-92
2023/09/08 09:21:15;;;;;;;5.38;3.17;;;;;;;;;;4947038;28;20187;-91
2023/09/08 09:24:33;;;;;;;5.30;3.00;;;;;;;;;;4950886;28;20245;-89
2023/09/08 09:27:50;;;;;;;5.80;3.20;;;;;;;;;;4963547;29;20264;-92
2023/09/08 09:31:02;;;;;;;4.22;3.30;;;;;;;;;;4963507;29;20185;-89
2023/09/08 09:34:14;;;;;;;5.00;2.90;;;;;;;;;;4963857;28;20273;-90
2023/09/08 09:37:26;;;;;;;5.03;3.03;;;;;;;;;;4964578;28;20263;-91
2023/09/08 09:40:41;;;;;;;7.95;4.28;;;;;;;;;;4965695;28;20201;-90
2023/09/08 09:43:54;;;;;;;5.13;3.03;;;;;;;;;;4963202;28;20322;-92
2023/09/08 09:47:06;;;;;;;6.70;3.22;;;;;;;;;;4965697;29;20198;-91
2023/09/08 09:50:28;;;;;;;5.82;3.65;;;;;;;;;;4964356;28;20596;-90
2023/09/08 09:53:43;;;;;;;8.88;3.28;;;;;;;;;;4964468;28;20198;-91
2023/09/08 09:56:56;;;;;;;5.95;3.42;;;;;;;;;;4964732;28;20314;-89
2023/09/08 10:00:10;;;;;;;7.60;3.97;;;;;;;;;;4968562;28;20194;-90
2023/09/08 10:03:22;;;;;;;7.07;3.08;;;;;;;;;;4963650;29;20186;-90
2023/09/08 10:06:34;;;;;;;7.60;3.13;;;;;;;;;;4964673;29;20190;-90
2023/09/08 10:09:46;;;;;;;7.55;3.38;;;;;;;;;;4966414;28;20253;-91
2023/09/08 10:12:59;;;;;;;5.28;3.20;;;;;;;;;;4966416;28;20266;-91
2023/09/08 10:16:17;;;;;;;6.38;3.30;;;;;;;;;;4955618;29;20603;-91
2023/09/08 10:19:29;;;;;;;7.32;3.05;;;;;;;;;;4945132;28;20190;-92
2023/09/08 10:22:42;;;;;;;4.20;2.83;;;;;;;;;;4949889;29;20209;-89
2023/09/08 10:25:58;;;;;;;9.32;3.33;;;;;;;;;;4949045;29;20685;-89
2023/09/08 10:29:10;;;;;;;4.90;3.22;;;;;;;;;;4952047;28;20210;-91
2023/09/08 10:32:24;;;;;;;6.40;3.30;;;;;;;;;;4931368;29;20214;-90
2023/09/08 10:35:38;;;;;;;7.60;2.80;;;;;;;;;;4947493;29;20233;-91
2023/09/08 10:38:51;;;;;;;5.63;2.95;;;;;;;;;;4959732;28;20214;-93
2023/09/08 10:42:28;;;;;;;5.00;3.33;;;;;;;;;;4958506;29;20218;-92
2023/09/08 10:45:41;;;;;;;7.65;3.22;;;;;;;;;;4945742;28;20202;-92
2023/09/08 10:48:54;;;;;;;4.07;2.50;;;;;;;;;;4944513;29;20603;-91
2023/09/08 10:52:09;;;;;;;5.15;3.38;;;;;;;;;;4943856;29;20573;-92
2023/09/08 10:55:36;;;;;;;5.05;3.15;;;;;;;;;;4952400;29;20238;-91
2023/09/08 10:58:50;;;;;;;3.83;2.63;;;;;;;;;;4948901;29;20207;-94
2023/09/08 11:02:05;;;;;;;7.80;3.38;;;;;;;;;;4945804;29;20218;-93
2023/09/08 11:05:19;;;;;;;6.03;3.13;;;;;;;;;;4947796;29;20287;-93
2023/09/08 11:08:31;;;;;;;8.25;3.15;;;;;;;;;;4947493;29;20222;-92
2023/09/08 11:11:44;;;;;;;6.88;3.30;;;;;;;;;;4959894;28;20226;-92
2023/09/08 11:14:55;;;;;;;4.88;3.22;;;;;;;;;;4929076;29;20710;-93
2023/09/08 11:18:07;;;;;;;5.18;2.95;;;;;;;;;;4938957;29;20209;-91
2023/09/08 11:21:21;;;;;;;5.43;3.03;;;;;;;;;;4948961;28;20222;-91
2023/09/08 11:24:33;;;;;;;5.93;3.00;;;;;;;;;;4956084;28;20202;-92
2023/09/08 11:27:44;;;;;;;5.70;3.75;;;;;;;;;;4947476;29;20659;-90
2023/09/08 11:30:57;;;;;;;5.07;2.97;;;;;;;;;;4932369;28;20238;-91
2023/09/08 11:34:18;;;;;;;4.90;3.10;;;;;;;;;;4947416;28;20215;-91
2023/09/08 11:37:31;;;;;;;4.13;3.10;;;;;;;;;;4958180;28;20184;-91
2023/09/08 11:40:48;;;;;;;3.75;2.83;;;;;;;;;;4943253;28;20255;-92
2023/09/08 11:44:00;;;;;;;5.18;3.13;;;;;;;;;;4954557;28;20242;-89
2023/09/08 11:47:21;;;;;;;5.70;2.83;;;;;;;;;;4949248;28;20209;-89
2023/09/08 11:50:34;;;;;;;4.18;3.08;;;;;;;;;;4946346;29;20232;-90
2023/09/08 11:53:47;;;;;;;4.55;3.20;;;;;;;;;;4936049;29;20197;-89
2023/09/08 11:56:59;;;;;;;5.55;3.55;;;;;;;;;;4956955;28;20194;-90
2023/09/08 12:00:16;;;;;;;7.53;3.10;;;;;;;;;;4947972;28;20186;-90
2023/09/08 12:03:29;;;;;;;3.95;2.88;;;;;;;;;;4952573;28;20287;-90
2023/09/08 12:06:41;;;;;;;4.55;3.30;;;;;;;;;;4950340;28;20199;-93
2023/09/08 12:09:56;;;;;;;4.43;2.78;;;;;;;;;;4948641;29;20217;-88
2023/09/08 12:13:08;;;;;;;5.25;2.90;;;;;;;;;;4950380;29;20275;-93
2023/09/08 12:16:21;;;;;;;7.10;3.05;;;;;;;;;;4948980;29;20295;-90
2023/09/08 12:19:36;;;;;;;7.85;3.63;;;;;;;;;;4948617;29;20665;-93
2023/09/08 12:22:51;;;;;;;6.18;3.30;;;;;;;;;;4930488;29;20282;-91
2023/09/08 12:26:04;;;;;;;5.10;3.33;;;;;;;;;;4939546;28;20239;-89
2023/09/08 12:29:15;;;;;;;5.43;3.03;;;;;;;;;;4945548;28;20199;-90
2023/09/08 12:32:27;;;;;;;3.88;2.90;;;;;;;;;;4946459;29;20191;-89
2023/09/08 12:35:40;;;;;;;5.43;3.15;;;;;;;;;;4948332;29;20317;-91
2023/09/08 12:38:52;;;;;;;4.95;3.30;;;;;;;;;;4948351;29;20214;-93
2023/09/08 12:42:06;;;;;;;4.63;3.40;;;;;;;;;;4951743;28;20191;-90
2023/09/08 12:45:21;;;;;;;4.68;3.00;;;;;;;;;;4950386;28;20214;-88
2023/09/08 12:48:33;;;;;;;6.35;3.13;;;;;;;;;;4949452;28;20284;-93
2023/09/08 12:51:44;;;;;;;8.35;3.28;;;;;;;;;;4949717;28;20202;-90
2023/09/08 12:54:57;;;;;;;6.55;3.17;;;;;;;;;;4946922;28;20209;-89
2023/09/08 12:58:10;;;;;;;4.57;2.97;;;;;;;;;;4946522;29;20658;-92
2023/09/08 13:01:22;;;;;;;7.20;3.20;;;;;;;;;;4947372;28;20190;-94
2023/09/08 13:04:34;;;;;;;6.15;3.53;;;;;;;;;;4945023;28;20206;-91
2023/09/08 13:07:45;;;;;;;7.97;3.22;;;;;;;;;;4947529;29;20213;-91
2023/09/08 13:10:56;;;;;;;3.92;2.75;;;;;;;;;;4947156;28;20195;-88
2023/09/08 13:14:09;;;;;;;4.45;3.30;;;;;;;;;;4946889;28;20199;-91
2023/09/08 13:17:21;;;;;;;7.05;3.80;;;;;;;;;;4946798;28;20287;-93
2023/09/08 13:20:32;;;;;;;6.40;3.30;;;;;;;;;;4949108;28;20249;-92
2023/09/08 13:23:47;;;;;;;5.45;3.38;;;;;;;;;;4944664;29;20195;-92
2023/09/08 13:26:59;;;;;;;4.70;3.15;;;;;;;;;;4942928;29;20210;-90
2023/09/08 13:30:12;;;;;;;6.45;3.30;;;;;;;;;;4942038;29;20678;-91
2023/09/08 13:33:24;;;;;;;8.15;3.25;;;;;;;;;;4945099;29;20280;-91
2023/09/08 13:36:36;;;;;;;5.57;3.50;;;;;;;;;;4945442;29;20254;-91
2023/09/08 13:39:48;;;;;;;7.68;3.63;;;;;;;;;;4944090;29;20218;-90
2023/09/08 13:43:00;;;;;;;8.02;3.25;;;;;;;;;;4941880;29;20202;-92
2023/09/08 13:46:13;;;;;;;4.13;3.10;;;;;;;;;;4946437;28;20234;-91
2023/09/08 13:49:24;;;;;;;5.15;3.05;;;;;;;;;;4942647;28;20190;-90
2023/09/08 13:52:35;;;;;;;6.88;3.10;;;;;;;;;;4944715;29;20182;-92
2023/09/08 13:55:48;;;;;;;5.05;3.45;;;;;;;;;;4944636;29;20250;-92
2023/09/08 13:58:59;;;;;;;6.30;3.53;;;;;;;;;;4944148;29;20206;-92
2023/09/08 14:02:11;;;;;;;5.10;3.25;;;;;;;;;;4943736;28;20242;-90
2023/09/08 14:05:23;;;;;;;6.15;3.53;;;;;;;;;;4943201;29;20206;-89
2023/09/08 14:08:35;;;;;;;4.93;3.17;;;;;;;;;;4942311;29;20315;-89
2023/09/08 14:11:47;;;;;;;6.30;3.17;;;;;;;;;;4942664;29;20885;-90
2023/09/08 14:14:58;;;;;;;5.60;3.10;;;;;;;;;;4942812;29;20199;-90
2023/09/08 14:18:13;;;;;;;4.70;3.15;;;;;;;;;;4942102;29;20301;-89
2023/09/08 14:21:24;;;;;;;4.80;2.85;;;;;;;;;;4942875;29;20230;-89
2023/09/08 14:24:36;;;;;;;4.93;3.03;;;;;;;;;;4943671;29;20219;-90
2023/09/08 14:27:47;;;;;;;3.72;2.83;;;;;;;;;;4943220;29;20194;-90
2023/09/08 14:31:00;;;;;;;5.35;3.30;;;;;;;;;;4948133;29;20222;-89
2023/09/08 14:34:13;;;;;;;6.88;3.28;;;;;;;;;;4949352;29;20191;-89
2023/09/08 14:37:24;;;;;;;7.30;3.65;;;;;;;;;;4950791;29;20294;-91
2023/09/08 14:40:36;;;;;;;5.00;3.38;;;;;;;;;;4949391;28;20171;-91
2023/09/08 14:43:49;;;;;;;5.20;3.20;;;;;;;;;;4946689;29;20662;-89
2023/09/08 14:47:00;;;;;;;6.95;3.03;;;;;;;;;;4949664;28;20331;-92
2023/09/08 14:50:15;;;;;;;5.97;3.10;;;;;;;;;;4949742;28;20186;-91
2023/09/08 14:53:28;;;;;;;4.95;3.25;;;;;;;;;;4949439;29;20251;-90
2023/09/08 14:56:40;;;;;;;5.63;2.92;;;;;;;;;;4949938;29;20288;-91
2023/09/08 14:59:55;;;;;;;5.72;3.20;;;;;;;;;;4950661;29;20272;-90
2023/09/08 15:03:07;;;;;;;5.28;3.22;;;;;;;;;;4950396;28;20214;-90
2023/09/08 15:06:27;;;;;;;5.13;3.53;;;;;;;;;;4947827;29;20268;-91
2023/09/08 15:09:39;;;;;;;6.13;3.05;;;;;;;;;;4948732;29;20221;-88
2023/09/08 15:12:52;;;;;;;5.40;3.58;;;;;;;;;;4949222;29;20206;-88
2023/09/08 15:16:03;;;;;;;4.82;3.25;;;;;;;;;;4949632;29;20688;-90
2023/09/08 15:19:16;;;;;;;10.52;3.92;;;;;;;;;;4949606;28;20264;-90
2023/09/08 15:22:29;;;;;;;6.32;3.22;;;;;;;;;;4954728;29;20223;-89
2023/09/08 15:25:41;;;;;;;4.47;3.25;;;;;;;;;;4951926;29;20280;-89
2023/09/08 15:28:53;;;;;;;5.22;3.50;;;;;;;;;;4947326;29;20199;-89
2023/09/08 15:32:05;;;;;;;5.97;3.05;;;;;;;;;;4949316;28;20250;-89
2023/09/08 15:35:18;;;;;;;12.85;3.80;;;;;;;;;;4948527;29;20499;-88
2023/09/08 15:38:31;;;;;;;5.95;3.17;;;;;;;;;;4948972;28;20678;-89
2023/09/08 15:41:42;;;;;;;6.05;3.15;;;;;;;;;;4949658;28;20195;-89
2023/09/08 15:44:54;;;;;;;6.90;3.47;;;;;;;;;;4951662;28;20210;-91
2023/09/08 15:48:08;;;;;;;6.70;2.90;;;;;;;;;;4946888;29;20264;-87
2023/09/08 15:51:20;;;;;;;7.45;3.50;;;;;;;;;;4947482;28;20194;-89
2023/09/08 15:54:33;;;;;;;4.20;3.05;;;;;;;;;;4946861;28;20681;-90
2023/09/08 15:57:44;;;;;;;6.75;3.72;;;;;;;;;;4947978;28;20222;-87
2023/09/08 16:00:55;;;;;;;5.18;3.03;;;;;;;;;;4951259;29;20190;-88
2023/09/08 16:04:09;;;;;;;9.10;3.95;;;;;;;;;;4949542;29;20195;-90
2023/09/08 16:07:22;;;;;;;6.13;3.58;;;;;;;;;;4950726;28;20202;-90
2023/09/08 16:10:35;;;;;;;5.05;3.15;;;;;;;;;;4949604;29;20191;-91
2023/09/08 16:13:48;;;;;;;6.50;3.42;;;;;;;;;;4949179;29;20207;-90
2023/09/08 16:17:04;;;;;;;7.60;3.70;;;;;;;;;;4948654;28;20287;-89
2023/09/08 16:20:15;;;;;;;7.68;3.40;;;;;;;;;;4949879;28;20755;-89
2023/09/08 16:23:28;;;;;;;7.25;3.45;;;;;;;;;;4948322;28;20224;-88
2023/09/08 16:26:41;;;;;;;8.02;3.30;;;;;;;;;;4949368;29;20191;-89
2023/09/08 16:29:53;;;;;;;7.53;3.00;;;;;;;;;;4949813;28;20756;-89
2023/09/08 16:33:05;;;;;;;9.60;3.55;;;;;;;;;;4949352;28;20183;-91
2023/09/08 16:36:17;;;;;;;7.40;3.80;;;;;;;;;;4949109;28;20293;-90
2023/09/08 16:39:28;;;;;;;8.00;3.15;;;;;;;;;;4948331;29;20188;-89
2023/09/08 16:42:41;;;;;;;11.52;3.58;;;;;;;;;;4947549;28;20258;-89
2023/09/08 16:45:52;;;;;;;8.75;3.60;;;;;;;;;;4948684;28;20244;-92
2023/09/08 16:49:03;;;;;;;7.75;3.63;;;;;;;;;;4947486;29;20315;-89
2023/09/08 16:52:14;;;;;;;8.05;3.70;;;;;;;;;;4947837;28;20663;-89
2023/09/08 16:55:25;;;;;;;8.70;3.95;;;;;;;;;;4950851;28;20176;-91
2023/09/08 16:58:39;;;;;;;10.05;3.85;;;;;;;;;;4949682;28;20210;-91
2023/09/08 17:01:52;;;;;;;7.90;4.43;;;;;;;;;;4946379;28;20227;-90
2023/09/08 17:05:03;;;;;;;9.50;3.58;;;;;;;;;;4949203;28;20577;-91
2023/09/08 17:08:15;;;;;;;11.93;3.80;;;;;;;;;;4948102;28;20198;-90
2023/09/08 17:11:27;;;;;;;5.65;3.75;;;;;;;;;;4948052;28;20238;-89
2023/09/08 17:14:40;;;;;;;9.77;4.10;;;;;;;;;;4949957;29;20199;-91
2023/09/08 17:17:52;;;;;;;12.20;3.90;;;;;;;;;;4951132;28;20339;-90
2023/09/08 17:21:04;;;;;;;10.48;4.32;;;;;;;;;;4948713;28;20187;-90
2023/09/08 17:24:15;;;;;;;9.27;4.05;;;;;;;;;;4946092;28;20195;-90
2023/09/08 17:27:28;;;;;;;15.00;4.90;;;;;;;;;;4947193;29;20290;-90
2023/09/08 17:30:41;;;;;;;7.43;4.00;;;;;;;;;;4947475;28;20196;-87
2023/09/08 17:33:53;;;;;;;8.38;4.03;;;;;;;;;;4949266;28;20224;-88
2023/09/08 17:37:04;;;;;;;13.93;4.30;;;;;;;;;;4946271;28;20235;-91
2023/09/08 17:40:16;;;;;;;9.52;4.40;;;;;;;;;;4949582;28;20195;-91
2023/09/08 17:43:38;;;;;;;8.10;4.47;;;;;;;;;;4946773;28;20190;-89
2023/09/08 17:46:54;;;;;;;7.85;4.22;;;;;;;;;;4946619;28;20278;-88
2023/09/08 17:50:06;;;;;;;8.95;4.80;;;;;;;;;;4945213;28;20219;-89
2023/09/08 17:53:17;;;;;;;7.40;4.25;;;;;;;;;;4946662;28;20186;-91
2023/09/08 17:56:33;;;;;;;9.27;4.40;;;;;;;;;;4947083;28;20223;-88
2023/09/08 17:59:54;;;;;;;8.45;4.35;;;;;;;;;;4949022;28;20188;-89
2023/09/08 18:06:48;;;;;;;7.80;4.43;;;;;;;;;;4951840;28;20266;-91
2023/09/08 18:10:02;;;;;;;8.23;4.65;;;;;;;;;;4949949;28;20231;-89
2023/09/08 18:13:13;;;;;;;9.05;4.40;;;;;;;;;;4950587;28;20658;-89
2023/09/08 18:16:27;;;;;;;7.80;3.97;;;;;;;;;;4952601;29;20203;-89
2023/09/08 18:19:39;;;;;;;7.43;4.30;;;;;;;;;;4949077;28;20366;-90
2023/09/08 18:22:54;;;;;;;8.10;4.28;;;;;;;;;;4950423;28;20174;-90
2023/09/08 18:26:07;;;;;;;9.23;4.88;;;;;;;;;;4950970;28;20195;-90
2023/09/08 18:29:18;;;;;;;7.50;4.60;;;;;;;;;;4946844;29;20246;-89
2023/09/08 18:32:31;;;;;;;9.45;4.68;;;;;;;;;;4944852;28;20235;-89
2023/09/08 18:35:45;;;;;;;10.70;4.40;;;;;;;;;;4947224;28;20265;-89
2023/09/08 18:38:58;;;;;;;9.32;4.57;;;;;;;;;;4945953;28;20199;-90
2023/09/08 18:42:11;;;;;;;10.40;4.60;;;;;;;;;;4946428;28;20659;-91
2023/09/08 18:45:23;;;;;;;7.20;4.35;;;;;;;;;;4943760;28;20666;-90
2023/09/08 18:48:36;;;;;;;13.27;5.75;;;;;;;;;;4942841;28;20180;-89
2023/09/08 18:51:48;;;;;;;8.48;4.65;;;;;;;;;;4945100;29;20553;-91
2023/09/08 18:55:03;;;;;;;10.48;4.82;;;;;;;;;;4944001;28;20211;-89
2023/09/08 18:58:15;;;;;;;11.80;4.75;;;;;;;;;;4944833;28;20587;-91
2023/09/08 19:01:27;;;;;;;10.00;4.68;;;;;;;;;;4947781;28;20230;-90
2023/09/08 19:04:38;;;;;;;8.95;4.72;;;;;;;;;;4946305;29;20247;-88
2023/09/08 19:07:51;;;;;;;10.65;5.03;;;;;;;;;;4950253;28;20550;-91
2023/09/08 19:11:04;;;;;;;9.02;5.22;;;;;;;;;;4948439;28;20187;-88
2023/09/08 19:14:16;;;;;;;12.32;5.38;;;;;;;;;;4945847;29;20191;-89
2023/09/08 19:17:28;;;;;;;13.70;5.78;;;;;;;;;;4949259;29;20704;-92